Time;durP1;ratioP1;P1;durP2;ratioP2;P2;SDS_P1;SDS_P2;PMS_P1;PMS_P2;Temp;Humidity;BMP_temperature;BMP_pressure;BME280_temperature;BME280_humidity;BME280_pressure;Samples;Min_cycle;Max_cycle;Signal;HPM_P1;HPM_P2
2022/10/23 00:01:40;;;;;;;2.65;2.45;;;;;;;14.16;80.08;99653.56;4347650;33;34370;-70
2022/10/23 00:04:11;;;;;;;2.45;2.15;;;;;;;14.34;78.69;99647.06;4347559;33;33851;-70
2022/10/23 00:06:39;;;;;;;3.22;3.00;;;;;;;13.94;80.51;99654.88;4347555;33;34908;-70
2022/10/23 00:09:08;;;;;;;1.95;1.85;;;;;;;14.40;77.09;99656.56;4333975;33;32917;-70
2022/10/23 00:11:37;;;;;;;1.23;1.20;;;;;;;14.06;78.71;99659.88;4347457;33;33379;-70
2022/10/23 00:14:06;;;;;;;0.95;0.95;;;;;;;14.23;78.28;99663.00;4347307;33;34156;-70
2022/10/23 00:16:34;;;;;;;4.00;2.33;;;;;;;13.75;80.46;99673.56;4347438;33;35013;-70
2022/10/23 00:19:03;;;;;;;1.50;1.40;;;;;;;14.18;79.14;99670.09;4347289;33;34615;-70
2022/10/23 00:21:31;;;;;;;3.90;1.33;;;;;;;13.96;79.16;99674.03;4347346;33;34178;-70
2022/10/23 00:23:59;;;;;;;1.83;1.70;;;;;;;13.86;79.99;99680.34;4347106;33;34650;-70
2022/10/23 00:26:27;;;;;;;3.10;2.47;;;;;;;14.02;79.51;99671.31;4347274;33;35158;-70
2022/10/23 00:28:55;;;;;;;2.40;1.95;;;;;;;13.94;80.38;99673.19;4347192;33;34592;-70
2022/10/23 00:31:24;;;;;;;1.77;1.67;;;;;;;13.92;80.17;99673.22;4347294;33;33564;-70
2022/10/23 00:33:52;;;;;;;0.98;0.93;;;;;;;13.93;79.99;99674.09;4348756;32;34060;-70
2022/10/23 00:36:21;;;;;;;4.60;2.97;;;;;;;14.25;78.50;99683.09;4349297;33;35431;-70
2022/10/23 00:38:50;;;;;;;1.30;1.23;;;;;;;14.20;77.92;99670.91;4349406;33;34462;-70
2022/10/23 00:41:31;;;;;;;1.62;1.52;;;;;;;13.89;79.66;99686.41;4336169;33;33651;-70
2022/10/23 00:44:06;;;;;;;2.50;2.30;;;;;;;14.09;78.35;99688.63;4349413;33;34708;-70
2022/10/23 00:46:36;;;;;;;1.52;1.42;;;;;;;13.76;79.96;99685.72;4349290;33;35032;-70
2022/10/23 00:49:04;;;;;;;2.08;1.87;;;;;;;13.91;79.76;99695.06;4349210;33;34369;-69
2022/10/23 00:51:50;;;;;;;2.10;1.85;;;;;;;14.01;79.06;99694.00;4349523;33;34363;-70
2022/10/23 00:54:21;;;;;;;2.35;1.90;;;;;;;13.88;80.05;99699.50;4336134;33;33927;-70
2022/10/23 00:56:54;;;;;;;1.65;1.55;;;;;;;13.59;81.61;99701.75;4349286;33;35016;-70
2022/10/23 00:59:23;;;;;;;5.53;2.80;;;;;;;13.71;80.66;99700.69;4336168;33;34535;-70
2022/10/23 01:01:51;;;;;;;2.42;1.58;;;;;;;14.10;78.93;99721.78;4349187;33;34261;-70
2022/10/23 01:04:19;;;;;;;1.65;1.55;;;;;;;14.21;77.47;99711.09;4335894;33;34762;-70
2022/10/23 01:06:59;;;;;;;2.25;2.05;;;;;;;14.03;78.35;99726.25;4335835;33;35162;-70
2022/10/23 01:09:41;;;;;;;2.28;1.98;;;;;;;13.86;79.39;99727.47;4349219;33;35302;-70
2022/10/23 01:12:18;;;;;;;1.77;1.67;;;;;;;13.92;78.68;99724.72;4349169;33;34259;-70
2022/10/23 01:14:58;;;;;;;1.55;1.45;;;;;;;14.10;77.32;99732.25;4344036;33;172579;-70
2022/10/23 01:17:36;;;;;;;1.05;1.00;;;;;;;13.78;77.36;99733.72;4335933;33;34939;-70
2022/10/23 01:20:31;;;;;;;1.80;1.70;;;;;;;13.47;77.83;99730.75;4349396;33;34541;-70
2022/10/23 01:23:15;;;;;;;3.22;1.87;;;;;;;13.73;75.68;99732.91;4335986;33;33357;-70
2022/10/23 01:26:11;;;;;;;0.90;0.90;;;;;;;13.78;75.06;99738.94;4336132;33;33898;-70
2022/10/23 01:28:51;;;;;;;1.00;1.00;;;;;;;12.98;78.51;99737.53;4349362;33;35080;-70
2022/10/23 01:31:32;;;;;;;1.58;1.48;;;;;;;12.68;80.99;99744.91;4336121;33;34578;-70
2022/10/23 01:34:24;;;;;;;3.47;3.22;;;;;;;12.96;79.18;99743.69;4349056;33;34226;-70
2022/10/23 01:36:52;;;;;;;3.75;2.95;;;;;;;13.21;77.91;99738.97;4335785;33;33859;-70
2022/10/23 01:39:26;;;;;;;2.15;1.98;;;;;;;13.01;78.21;99734.87;4348886;33;35073;-70
2022/10/23 01:42:00;;;;;;;0.50;0.50;;;;;;;13.01;78.05;99742.72;4336100;33;35294;-70
2022/10/23 01:44:53;;;;;;;2.20;1.90;;;;;;;12.77;79.61;99743.06;4349047;33;34236;-70
2022/10/23 01:47:24;;;;;;;2.40;1.70;;;;;;;12.89;78.28;99743.75;4348769;33;33918;-70
2022/10/23 01:49:55;;;;;;;1.35;1.25;;;;;;;13.13;77.87;99751.28;4336054;33;35893;-70
2022/10/23 01:52:23;;;;;;;1.55;1.45;;;;;;;13.05;77.62;99746.16;4336023;33;33788;-70
2022/10/23 01:54:54;;;;;;;2.53;1.95;;;;;;;12.62;79.47;99747.59;4335970;33;33555;-70
2022/10/23 01:57:22;;;;;;;2.45;1.75;;;;;;;12.63;79.38;99751.94;4349115;33;33990;-70
2022/10/23 01:59:54;;;;;;;2.65;1.60;;;;;;;12.83;78.37;99748.19;4335929;33;35854;-70
2022/10/23 02:02:23;;;;;;;2.28;1.73;;;;;;;12.81;78.37;99747.34;4349109;33;34396;-70
2022/10/23 02:05:01;;;;;;;4.90;2.67;;;;;;;12.50;79.18;99745.16;4335503;33;34094;-70
2022/10/23 02:07:29;;;;;;;2.62;1.90;;;;;;;12.84;77.46;99744.72;4335620;33;33910;-70
2022/10/23 02:09:57;;;;;;;13.80;3.87;;;;;;;13.48;73.16;99737.69;4348836;33;35027;-70
2022/10/23 02:12:29;;;;;;;1.45;1.35;;;;;;;13.18;73.06;99729.41;4348796;33;34353;-70
2022/10/23 02:15:11;;;;;;;3.45;3.15;;;;;;;12.63;74.74;99741.47;4335615;33;33338;-70
2022/10/23 02:18:02;;;;;;;5.80;2.28;;;;;;;13.05;72.79;99739.19;4335846;33;34369;-70
2022/10/23 02:20:37;;;;;;;0.88;0.88;;;;;;;12.28;75.00;99744.50;4349043;33;35007;-70
2022/10/23 02:23:16;;;;;;;0.62;0.62;;;;;;;12.27;75.11;99746.28;4335710;33;35192;-70
2022/10/23 02:25:54;;;;;;;2.80;2.53;;;;;;;12.09;75.59;99749.09;4335637;33;33239;-70
2022/10/23 02:28:30;;;;;;;0.85;0.85;;;;;;;12.05;75.83;99742.16;4335487;33;34046;-70
2022/10/23 02:30:58;;;;;;;;;;;;;;;11.95;76.51;99746.62;4336057;33;35869;-70
2022/10/23 02:33:27;;;;;;;1.58;1.48;;;;;;;11.95;76.48;99747.47;4348581;33;35239;-70
2022/10/23 02:35:55;;;;;;;2.40;1.95;;;;;;;11.87;76.67;99749.25;4348610;33;33491;-70
2022/10/23 02:38:34;;;;;;;1.25;1.08;;;;;;;11.71;77.33;99747.66;4335368;33;34769;-70
2022/10/23 02:41:25;;;;;;;1.10;1.02;;;;;;;11.77;77.29;99753.69;4348612;33;35115;-70
2022/10/23 02:44:26;;;;;;;2.00;1.60;;;;;;;11.80;77.62;99763.22;4348722;33;34456;-70
2022/10/23 02:47:20;;;;;;;1.55;1.45;;;;;;;12.01;76.45;99771.78;4348867;33;34377;-70
2022/10/23 02:50:17;;;;;;;1.30;1.27;;;;;;;12.82;71.96;99772.63;4348053;33;33243;-70
2022/10/23 02:53:04;;;;;;;;;;;;;;;12.66;72.09;99775.41;4349072;33;35994;-70
2022/10/23 02:55:59;;;;;;;0.95;0.95;;;;;;;12.70;71.35;99771.00;4347926;33;34717;-70
2022/10/23 02:58:41;;;;;;;0.95;0.95;;;;;;;11.87;73.80;99790.16;4348648;33;33592;-70
2022/10/23 03:01:13;;;;;;;3.28;1.45;;;;;;;11.30;76.20;99783.62;4348729;33;33779;-70
2022/10/23 03:03:52;;;;;;;0.70;0.70;;;;;;;11.23;77.83;99791.50;4335491;33;35272;-70
2022/10/23 03:06:21;;;;;;;1.52;1.42;;;;;;;11.00;78.72;99785.53;4335167;33;34518;-70
2022/10/23 03:08:57;;;;;;;2.55;2.35;;;;;;;11.17;78.04;99788.06;4348190;33;33520;-69
2022/10/23 03:11:25;;;;;;;7.30;3.33;;;;;;;11.29;77.15;99786.22;4348519;33;33932;-70
2022/10/23 03:13:54;;;;;;;0.65;0.65;;;;;;;11.09;77.14;99794.19;4348057;33;35033;-70
2022/10/23 03:16:22;;;;;;;3.22;2.92;;;;;;;10.98;76.84;99792.50;4348354;33;34441;-70
2022/10/23 03:18:50;;;;;;;0.70;0.70;;;;;;;10.97;76.45;99802.91;4348308;33;33618;-70
2022/10/23 03:21:19;;;;;;;0.57;0.57;;;;;;;10.91;76.10;99797.75;4348156;33;34274;-70
2022/10/23 03:23:50;;;;;;;1.55;1.33;;;;;;;10.84;77.47;99811.69;4335519;33;35987;-70
2022/10/23 03:26:18;;;;;;;1.65;1.55;;;;;;;10.80;78.84;99803.87;4334792;33;33944;-70
2022/10/23 03:28:47;;;;;;;1.70;1.60;;;;;;;10.78;76.99;99810.84;4348116;33;34348;-69
2022/10/23 03:31:16;;;;;;;2.35;1.92;;;;;;;10.85;76.66;99805.59;4348294;33;33990;-70
2022/10/23 03:33:44;;;;;;;3.60;2.85;;;;;;;10.79;76.91;99807.34;4348253;33;35272;-70
2022/10/23 03:36:12;;;;;;;3.62;2.78;;;;;;;10.73;77.22;99803.87;4347904;33;35185;-70
2022/10/23 03:38:40;;;;;;;7.05;1.83;;;;;;;12.05;71.05;99805.69;4347979;33;33552;-70
2022/10/23 03:41:09;;;;;;;2.00;1.83;;;;;;;10.96;75.51;99801.22;4348010;33;34742;-70
2022/10/23 03:43:38;;;;;;;2.12;2.03;;;;;;;10.75;77.24;99800.41;4347800;33;35095;-70
2022/10/23 03:46:08;;;;;;;1.55;1.45;;;;;;;10.97;76.90;99803.78;4347736;33;34962;-69
2022/10/23 03:48:37;;;;;;;3.72;2.15;;;;;;;12.08;71.09;99795.19;4348176;33;33600;-69
2022/10/23 03:51:05;;;;;;;3.15;2.90;;;;;;;11.71;72.06;99799.84;4347742;33;33919;-69
2022/10/23 03:53:33;;;;;;;3.30;2.30;;;;;;;12.09;71.33;99801.31;4348001;33;35042;-69
2022/10/23 03:56:01;;;;;;;2.05;1.33;;;;;;;11.69;72.19;99804.22;4334791;33;34331;-69
2022/10/23 03:58:30;;;;;;;0.75;0.75;;;;;;;11.80;71.29;99804.13;4347742;33;34151;-69
2022/10/23 04:00:58;;;;;;;2.47;1.42;;;;;;;11.61;71.75;99804.25;4334560;33;33845;-69
2022/10/23 04:03:26;;;;;;;1.77;1.62;;;;;;;11.05;73.97;99808.09;4347588;33;36170;-70
2022/10/23 04:05:54;;;;;;;1.48;1.37;;;;;;;11.50;71.61;99806.94;4334445;33;35995;-69
2022/10/23 04:08:22;;;;;;;1.30;1.20;;;;;;;11.47;71.83;99806.09;4348728;33;33640;-69
2022/10/23 04:10:51;;;;;;;2.10;1.73;;;;;;;11.13;73.31;99809.78;4349510;33;34809;-68
2022/10/23 04:13:19;;;;;;;1.83;1.73;;;;;;;11.10;73.10;99807.22;4334561;33;34941;-69
2022/10/23 04:15:49;;;;;;;1.50;1.40;;;;;;;10.50;76.20;99803.97;4349116;33;35123;-69
2022/10/23 04:18:18;;;;;;;1.87;1.77;;;;;;;10.47;76.76;99793.59;4336112;33;33612;-69
2022/10/23 04:20:48;;;;;;;3.60;1.95;;;;;;;10.29;77.96;99794.44;4336046;33;33929;-69
2022/10/23 04:23:16;;;;;;;2.35;1.77;;;;;;;10.39;78.13;99801.41;4349398;33;36005;-69
2022/10/23 04:25:45;;;;;;;2.80;1.98;;;;;;;11.25;73.70;99794.97;4349120;33;35409;-68
2022/10/23 04:28:14;;;;;;;1.00;1.00;;;;;;;11.44;71.68;99796.56;4349224;33;33546;-68
2022/10/23 04:30:42;;;;;;;0.93;0.93;;;;;;;10.99;73.35;99803.78;4349113;33;33944;-68
2022/10/23 04:33:12;;;;;;;1.35;1.27;;;;;;;11.27;71.04;99799.28;4349131;33;35034;-69
2022/10/23 04:35:40;;;;;;;1.35;1.23;;;;;;;11.33;69.75;99793.16;4349433;33;35206;-68
2022/10/23 04:38:08;;;;;;;1.60;1.45;;;;;;;11.14;70.37;99795.87;4349627;33;33467;-68
2022/10/23 04:40:37;;;;;;;0.50;0.50;;;;;;;10.88;71.42;99795.16;4349464;33;34862;-69
2022/10/23 04:43:05;;;;;;;3.22;2.92;;;;;;;10.76;72.50;99801.28;4349400;33;35018;-68
2022/10/23 04:45:34;;;;;;;1.50;1.40;;;;;;;10.60;73.83;99801.31;4349086;33;34374;-68
2022/10/23 04:48:02;;;;;;;1.02;0.82;;;;;;;10.04;78.76;99800.56;4336315;33;33369;-68
2022/10/23 04:50:35;;;;;;;1.02;1.02;;;;;;;10.58;76.29;99810.87;4349129;33;34767;-68
2022/10/23 04:53:05;;;;;;;0.75;0.75;;;;;;;10.68;74.76;99810.87;4349409;33;35217;-68
2022/10/23 04:55:33;;;;;;;1.15;1.05;;;;;;;10.47;74.84;99809.22;4349197;33;35233;-68
2022/10/23 04:58:03;;;;;;;0.95;0.95;;;;;;;10.52;74.46;99810.06;4349388;33;33492;-68
2022/10/23 05:00:32;;;;;;;2.97;2.78;;;;;;;10.04;78.48;99799.69;4349063;33;34650;-68
2022/10/23 05:03:00;;;;;;;1.85;1.75;;;;;;;10.58;75.64;99807.44;4349297;33;35134;-68
2022/10/23 05:05:29;;;;;;;1.52;1.45;;;;;;;10.76;75.86;99809.09;4348909;33;34655;-68
2022/10/23 05:07:57;;;;;;;1.12;1.10;;;;;;;10.00;78.23;99804.03;4335895;33;34272;-68
2022/10/23 05:10:25;;;;;;;2.28;2.03;;;;;;;9.76;80.42;99804.03;4349297;33;33924;-69
2022/10/23 05:12:53;;;;;;;5.43;4.97;;;;;;;9.72;81.26;99810.13;4346669;32;34976;-69
2022/10/23 05:15:22;;;;;;;16.65;5.78;;;;;;;10.32;80.82;99810.09;4349068;33;35325;-68
2022/10/23 05:17:55;;;;;;;1.25;0.85;;;;;;;11.10;77.25;99812.41;4348947;33;33537;-68
2022/10/23 05:20:28;;;;;;;2.58;2.37;;;;;;;9.97;82.15;99819.66;4348770;33;34859;-68
2022/10/23 05:22:58;;;;;;;1.25;1.15;;;;;;;10.42;79.57;99823.09;4335817;33;34882;-68
2022/10/23 05:25:29;;;;;;;1.73;1.62;;;;;;;10.93;79.23;99814.25;4335678;33;34187;-68
2022/10/23 05:28:00;;;;;;;1.50;1.40;;;;;;;11.29;77.19;99822.72;4349191;33;34080;-68
2022/10/23 05:30:28;;;;;;;1.45;1.35;;;;;;;10.65;79.30;99818.69;4349087;33;33939;-68
2022/10/23 05:32:56;;;;;;;5.03;4.47;;;;;;;10.31;81.80;99814.44;4335581;33;35867;-68
2022/10/23 05:35:24;;;;;;;3.10;2.80;;;;;;;10.95;82.70;99812.50;4349125;33;35291;-69
2022/10/23 05:37:53;;;;;;;4.60;4.28;;;;;;;11.51;79.28;99818.25;4348976;33;33248;-68
2022/10/23 05:40:22;;;;;;;5.22;4.32;;;;;;;10.94;82.48;99821.16;4349096;33;34296;-68
2022/10/23 05:42:52;;;;;;;1.85;1.75;;;;;;;10.93;82.97;99827.28;4348934;33;34912;-69
2022/10/23 05:45:20;;;;;;;1.85;1.70;;;;;;;11.70;79.85;99826.78;4348643;33;34371;-68
2022/10/23 05:47:52;;;;;;;4.70;2.15;;;;;;;11.43;80.73;99820.03;4348996;33;33384;-68
2022/10/23 05:50:22;;;;;;;1.90;1.55;;;;;;;11.46;80.38;99822.62;4348647;33;34860;-68
2022/10/23 05:52:50;;;;;;;2.53;2.08;;;;;;;11.28;82.53;99837.53;4348679;33;35947;-68
2022/10/23 05:55:19;;;;;;;2.83;2.42;;;;;;;11.28;82.88;99842.72;4348798;33;35256;-68
2022/10/23 05:57:47;;;;;;;2.90;1.75;;;;;;;11.33;82.61;99840.06;4348666;33;34539;-68
2022/10/23 06:00:16;;;;;;;3.10;2.80;;;;;;;11.66;81.91;99832.91;4335895;33;34012;-69
2022/10/23 06:02:51;;;;;;;1.35;1.30;;;;;;;11.43;82.94;99841.75;4348778;33;34974;-68
2022/10/23 06:05:20;;;;;;;1.80;1.70;;;;;;;11.60;83.03;99848.63;4348918;33;34651;-68
2022/10/23 06:07:49;;;;;;;3.03;2.30;;;;;;;12.06;80.29;99848.31;4348562;33;33588;-68
2022/10/23 06:10:18;;;;;;;1.45;1.30;;;;;;;11.63;80.25;99844.25;4348926;33;33931;-68
2022/10/23 06:12:46;;;;;;;1.85;1.75;;;;;;;12.50;75.95;99845.25;4348824;33;35209;-68
2022/10/23 06:15:15;;;;;;;1.83;1.73;;;;;;;12.40;75.64;99833.16;4348354;33;35469;-68
2022/10/23 06:17:44;;;;;;;2.05;1.83;;;;;;;11.69;80.21;99835.53;4348556;33;33516;-69
2022/10/23 06:20:13;;;;;;;2.80;2.60;;;;;;;12.39;77.24;99835.78;4348502;32;33922;-69
2022/10/23 06:22:41;;;;;;;2.37;2.17;;;;;;;12.40;78.04;99837.53;4348803;33;35873;-69
2022/10/23 06:25:11;;;;;;;1.10;1.08;;;;;;;12.68;77.37;99838.97;4348696;33;34446;-68
2022/10/23 06:27:39;;;;;;;2.58;1.37;;;;;;;12.09;81.33;99850.91;4348611;33;33511;-68
2022/10/23 06:30:10;;;;;;;3.20;0.95;;;;;;;11.99;82.56;99857.06;4348199;33;33509;-68
2022/10/23 06:32:39;;;;;;;1.90;1.70;;;;;;;12.06;83.23;99866.56;4334885;33;35219;-69
2022/10/23 06:35:08;;;;;;;1.45;1.35;;;;;;;12.22;83.56;99870.78;4348700;33;34584;-69
2022/10/23 06:37:36;;;;;;;2.70;2.47;;;;;;;12.60;82.92;99877.38;4348680;33;34335;-69
2022/10/23 06:40:06;;;;;;;1.87;1.77;;;;;;;12.66;83.15;99881.69;4348481;33;33935;-70
2022/10/23 06:42:35;;;;;;;3.58;1.70;;;;;;;12.81;83.71;99885.88;4348348;33;35154;-70
2022/10/23 06:45:05;;;;;;;1.52;1.42;;;;;;;13.24;82.67;99886.22;4348499;33;34374;-69
2022/10/23 06:47:36;;;;;;;0.98;0.98;;;;;;;14.12;80.86;99884.97;4348406;33;33841;-69
2022/10/23 06:50:07;;;;;;;0.80;0.80;;;;;;;13.98;83.29;99879.09;4348558;33;33916;-69
2022/10/23 06:52:42;;;;;;;1.60;1.35;;;;;;;14.01;84.32;99877.31;4348477;33;35051;-68
2022/10/23 06:55:14;;;;;;;0.40;0.40;;;;;;;14.15;84.47;99884.03;4348533;33;34523;-70
2022/10/23 06:57:42;;;;;;;0.80;0.80;;;;;;;14.29;83.98;99883.81;4348055;33;34465;-69
2022/10/23 07:00:12;;;;;;;1.92;1.75;;;;;;;14.60;82.63;99895.53;4348578;33;34666;-69
2022/10/23 07:02:40;;;;;;;2.15;2.05;;;;;;;14.55;82.08;99902.56;4348411;33;34687;-70
2022/10/23 07:05:09;;;;;;;5.80;2.40;;;;;;;14.97;80.81;99894.81;4348497;33;34452;-70
2022/10/23 07:07:41;;;;;;;2.10;1.50;;;;;;;15.03;79.00;99888.56;4348545;33;34111;-70
2022/10/23 07:10:09;;;;;;;1.10;1.10;;;;;;;14.53;82.16;99893.87;4348579;33;33862;-70
2022/10/23 07:12:37;;;;;;;0.52;0.52;;;;;;;14.84;80.57;99888.09;4348558;33;34928;-70
2022/10/23 07:15:06;;;;;;;2.55;2.17;;;;;;;15.18;79.49;99897.91;4348134;33;34244;-70
2022/10/23 07:17:34;;;;;;;1.00;1.00;;;;;;;15.75;77.56;99899.31;4348169;33;34289;-70
2022/10/23 07:20:03;;;;;;;1.15;1.05;;;;;;;15.92;75.78;99898.94;4347898;33;34754;-70
2022/10/23 07:22:31;;;;;;;2.10;1.90;;;;;;;16.06;75.08;99899.47;4347997;33;35230;-70
2022/10/23 07:25:00;;;;;;;3.28;2.37;;;;;;;15.86;76.06;99906.94;4348141;33;34206;-70
2022/10/23 07:27:29;;;;;;;1.90;1.05;;;;;;;15.67;76.79;99896.84;4348080;33;33578;-70
2022/10/23 07:29:57;;;;;;;0.75;0.75;;;;;;;15.83;77.31;99899.12;4348250;33;33972;-70
2022/10/23 07:32:28;;;;;;;0.35;0.35;;;;;;;16.40;75.89;99893.34;4348117;33;35077;-70
2022/10/23 07:35:01;;;;;;;0.77;0.77;;;;;;;16.58;74.80;99889.38;4345848;33;34305;-70
2022/10/23 07:37:29;;;;;;;0.73;0.73;;;;;;;16.56;75.20;99896.44;4348015;33;33766;-69
2022/10/23 07:39:58;;;;;;;1.12;1.02;;;;;;;15.95;76.12;99890.09;4348064;33;33941;-69
2022/10/23 07:42:25;;;;;;;0.95;0.95;;;;;;;16.45;74.10;99890.62;4348677;33;35054;-70
2022/10/23 07:44:53;;;;;;;1.00;0.95;;;;;;;16.65;74.10;99887.47;4336665;33;34449;-70
2022/10/23 07:47:22;;;;;;;2.45;1.85;;;;;;;16.86;72.29;99889.53;4349510;33;34270;-70
2022/10/23 07:49:50;;;;;;;1.98;1.80;;;;;;;16.84;73.31;99887.84;4349810;33;34066;-70
2022/10/23 07:52:19;;;;;;;1.62;1.52;;;;;;;17.18;71.99;99895.66;4349532;33;35031;-71
2022/10/23 07:54:51;;;;;;;2.08;1.77;;;;;;;17.00;73.30;99894.41;4349539;33;33605;-70
2022/10/23 07:57:19;;;;;;;1.50;1.40;;;;;;;17.19;72.31;99892.13;4349654;33;34316;-70
2022/10/23 07:59:48;;;;;;;1.90;1.42;;;;;;;17.73;72.07;99881.72;4349623;33;34147;-70
2022/10/23 08:02:18;;;;;;;3.42;1.42;;;;;;;17.79;71.61;99884.19;4349733;33;35186;-71
2022/10/23 08:04:50;;;;;;;1.58;1.48;;;;;;;17.70;71.97;99885.31;4349837;33;34483;-71
2022/10/23 08:07:18;;;;;;;1.95;1.85;;;;;;;18.74;68.45;99875.72;4349640;33;33441;-70
2022/10/23 08:09:47;;;;;;;1.55;1.40;;;;;;;18.91;66.39;99882.19;4349846;33;33706;-71
2022/10/23 08:12:15;;;;;;;1.83;1.40;;;;;;;18.96;65.84;99879.41;4349886;33;34850;-71
2022/10/23 08:14:44;;;;;;;1.48;1.37;;;;;;;19.01;65.26;99883.59;4349643;33;35197;-71
2022/10/23 08:17:12;;;;;;;1.50;1.40;;;;;;;18.93;65.57;99886.50;4336592;33;34886;-71
2022/10/23 08:19:47;;;;;;;2.83;2.47;;;;;;;19.49;63.30;99880.00;4349842;33;33970;-71
2022/10/23 08:22:15;;;;;;;3.33;1.37;;;;;;;19.30;64.08;99885.13;4349760;33;35154;-71
2022/10/23 08:24:43;;;;;;;0.70;0.70;;;;;;;19.54;63.18;99886.91;4349570;33;34496;-71
2022/10/23 08:27:11;;;;;;;2.55;2.25;;;;;;;20.23;62.57;99878.84;4349565;33;33708;-71
2022/10/23 08:29:40;;;;;;;1.30;1.20;;;;;;;19.95;61.95;99879.13;4349706;33;34063;-71
2022/10/23 08:32:08;;;;;;;1.05;1.02;;;;;;;20.23;61.18;99878.84;4349611;33;35982;-71
2022/10/23 08:34:37;;;;;;;1.62;1.52;;;;;;;20.95;61.45;99883.69;4349658;33;35242;-71
2022/10/23 08:37:05;;;;;;;3.05;2.45;;;;;;;20.94;60.68;99889.91;4349730;33;34254;-71
2022/10/23 08:39:33;;;;;;;1.05;0.90;;;;;;;21.71;58.88;99878.44;4349662;33;33979;-71
2022/10/23 08:42:01;;;;;;;0.50;0.50;;;;;;;21.71;58.03;99878.44;4349578;33;35921;-72
2022/10/23 08:44:47;;;;;;;2.10;1.73;;;;;;;21.87;56.57;99870.59;4334081;33;34541;-70
2022/10/23 08:47:30;;;;;;;0.85;0.75;;;;;;;22.32;56.68;99874.59;4336552;33;33381;-71
2022/10/23 08:50:13;;;;;;;0.95;0.88;;;;;;;22.63;54.61;99880.09;4336275;33;34857;-70
2022/10/23 08:52:51;;;;;;;1.30;1.20;;;;;;;23.32;53.17;99870.28;4335853;33;35956;-71
2022/10/23 08:55:29;;;;;;;1.30;1.20;;;;;;;23.61;52.38;99866.84;4335573;33;34507;-71
2022/10/23 08:58:16;;;;;;;1.30;1.20;;;;;;;24.27;51.40;99864.87;4349202;33;34141;-70
2022/10/23 09:00:45;;;;;;;;;;;;;;;24.70;49.07;99861.44;4349346;33;34773;-71
2022/10/23 09:03:13;;;;;;;1.15;1.05;;;;;;;25.26;47.48;99866.91;4349029;33;35871;-71
2022/10/23 09:06:16;;;;;;;1.92;1.55;;;;;;;25.25;47.25;99870.50;4349277;33;34568;-70
2022/10/23 09:08:56;;;;;;;1.17;1.08;;;;;;;26.23;44.16;99868.62;4339311;33;34367;-71
2022/10/23 09:12:05;;;;;;;1.70;1.60;;;;;;;26.22;45.50;99867.75;4335765;33;33929;-71
2022/10/23 09:15:01;;;;;;;0.85;0.70;;;;;;;26.36;44.86;99872.16;4334743;33;34912;-71
2022/10/23 09:17:32;;;;;;;1.30;1.17;;;;;;;26.74;43.62;99879.37;4348848;32;34529;-71
2022/10/23 09:20:17;;;;;;;1.92;1.73;;;;;;;27.47;42.89;99872.47;4335841;33;33709;-71
2022/10/23 09:22:47;;;;;;;0.85;0.85;;;;;;;27.75;39.51;99886.50;4349214;33;34798;-72
2022/10/23 09:25:21;;;;;;;3.20;2.15;;;;;;;28.18;40.63;99891.34;4335593;33;34557;-72
2022/10/23 09:27:55;;;;;;;2.47;1.75;;;;;;;29.11;38.37;99891.31;4335542;33;34522;-71
2022/10/23 09:30:36;;;;;;;0.65;0.60;;;;;;;29.16;37.75;99882.94;4336236;33;34306;-71
2022/10/23 09:33:24;;;;;;;2.58;1.87;;;;;;;28.98;37.40;99892.41;4348835;33;34007;-71
2022/10/23 09:36:12;;;;;;;0.65;0.65;;;;;;;28.34;38.75;99891.03;4333892;32;35026;-71
2022/10/23 09:38:49;;;;;;;1.65;1.30;;;;;;;28.11;36.86;99892.78;4348929;33;35348;-72
2022/10/23 09:41:31;;;;;;;0.93;0.75;;;;;;;26.56;39.96;99889.50;4335732;33;33560;-72
2022/10/23 09:44:07;;;;;;;0.70;0.70;;;;;;;28.14;38.42;99887.22;4349068;33;33834;-72
2022/10/23 09:47:05;;;;;;;1.30;1.20;;;;;;;28.42;37.60;99896.69;4348719;33;34877;-72
2022/10/23 09:49:33;;;;;;;0.40;0.40;;;;;;;28.27;36.82;99892.47;4330680;33;34615;-72
2022/10/23 09:52:18;;;;;;;0.88;0.82;;;;;;;28.17;38.02;99874.44;4348755;33;34182;-71
2022/10/23 09:54:53;;;;;;;0.70;0.45;;;;;;;28.26;38.17;99882.75;4335547;33;33963;-73
2022/10/23 09:57:37;;;;;;;0.60;0.60;;;;;;;28.44;36.67;99878.66;4335561;33;35943;-70
2022/10/23 10:00:18;;;;;;;0.95;0.85;;;;;;;27.91;35.73;99880.91;4333908;33;32963;-71
2022/10/23 10:03:02;;;;;;;12.52;1.90;;;;;;;27.94;37.40;99884.19;4348960;33;34430;-71
2022/10/23 10:05:33;;;;;;;0.68;0.68;;;;;;;27.32;38.11;99884.25;4334620;33;33865;-74
2022/10/23 10:08:16;;;;;;;2.10;1.80;;;;;;;27.47;37.99;99882.31;4335469;33;34935;-74
2022/10/23 10:10:53;;;;;;;1.33;1.23;;;;;;;27.62;37.72;99881.22;4348624;33;34444;-73
2022/10/23 10:13:24;;;;;;;1.25;1.08;;;;;;;28.32;36.56;99884.94;4335522;33;33745;-73
2022/10/23 10:15:58;;;;;;;1.40;0.98;;;;;;;28.11;37.35;99882.94;4348389;33;34052;-73
2022/10/23 10:18:40;;;;;;;3.12;1.20;;;;;;;27.04;38.18;99886.22;4335433;33;35121;-73
2022/10/23 10:21:27;;;;;;;1.15;0.88;;;;;;;25.85;41.28;99878.16;4335224;33;33747;-72
2022/10/23 10:23:56;;;;;;;0.40;0.40;;;;;;;25.82;41.78;99875.72;4335674;33;33366;-72
2022/10/23 10:26:27;;;;;;;2.87;1.62;;;;;;;24.15;44.90;99873.56;4348535;33;33844;-73
2022/10/23 10:29:24;;;;;;;0.90;0.88;;;;;;;24.71;44.23;99869.34;4348536;33;35875;-73
2022/10/23 10:32:04;;;;;;;3.70;1.85;;;;;;;25.03;44.57;99863.84;4335764;33;34601;-72
2022/10/23 10:34:49;;;;;;;0.88;0.88;;;;;;;24.75;44.52;99865.53;4335167;33;33349;-72
2022/10/23 10:37:28;;;;;;;2.78;1.90;;;;;;;23.47;46.79;99867.62;4334908;33;33516;-72
2022/10/23 10:40:03;;;;;;;7.72;4.03;;;;;;;22.89;49.17;99858.34;4335363;33;35019;-72
2022/10/23 10:42:42;;;;;;;1.55;1.45;;;;;;;21.92;51.63;99859.78;4348411;33;35130;-71
2022/10/23 10:45:33;;;;;;;1.25;1.15;;;;;;;22.30;51.18;99857.84;4335629;33;34333;-71
2022/10/23 10:48:19;;;;;;;1.05;1.02;;;;;;;22.14;51.57;99852.44;4335361;33;33847;-71
2022/10/23 10:50:56;;;;;;;1.50;1.40;;;;;;;21.88;52.41;99839.63;4348834;33;35051;-70
2022/10/23 10:53:44;;;;;;;4.57;4.05;;;;;;;22.27;51.84;99831.50;4348643;33;35242;-70
2022/10/23 10:56:14;;;;;;;2.97;2.15;;;;;;;22.19;51.79;99827.50;4348487;33;33702;-70
2022/10/23 10:58:55;;;;;;;4.60;3.10;;;;;;;22.33;52.83;99827.69;4348514;33;34093;-73
2022/10/23 11:01:41;;;;;;;8.88;3.03;;;;;;;23.23;49.63;99826.47;4348395;33;34766;-70
2022/10/23 11:04:30;;;;;;;3.45;2.83;;;;;;;23.61;48.52;99815.44;4334927;33;34457;-70
2022/10/23 11:07:02;;;;;;;4.60;3.05;;;;;;;23.56;49.61;99806.88;4348444;33;33674;-72
2022/10/23 11:09:30;;;;;;;5.55;3.40;;;;;;;24.98;45.72;99800.16;4335130;33;33977;-72
2022/10/23 11:11:59;;;;;;;3.87;3.53;;;;;;;25.37;43.83;99803.09;4348486;33;35929;-72
2022/10/23 11:14:31;;;;;;;4.47;3.95;;;;;;;25.55;43.91;99798.34;4347940;33;34460;-71
2022/10/23 11:17:10;;;;;;;10.60;6.00;;;;;;;25.26;44.22;99808.25;4334675;33;33450;-72
2022/10/23 11:19:50;;;;;;;4.05;3.30;;;;;;;24.33;46.89;99797.94;4348271;33;33710;-73
2022/10/23 11:22:47;;;;;;;5.20;3.62;;;;;;;25.44;43.70;99796.41;4334906;33;35127;-72
2022/10/23 11:25:21;;;;;;;3.70;2.45;;;;;;;26.04;42.83;99794.25;4348043;33;33581;-73
2022/10/23 11:28:05;;;;;;;4.90;4.40;;;;;;;25.95;41.85;99800.22;4334820;33;34244;-72
2022/10/23 11:30:56;;;;;;;2.08;1.73;;;;;;;26.34;41.80;99806.47;4348086;33;34077;-73
2022/10/23 11:34:10;;;;;;;3.90;1.80;;;;;;;26.86;41.55;99808.22;4347852;33;35162;-72
2022/10/23 11:36:53;;;;;;;4.70;3.83;;;;;;;26.49;41.82;99810.75;4347786;33;35203;-73
2022/10/23 11:39:21;;;;;;;3.30;3.05;;;;;;;25.89;43.40;99804.13;4334735;33;33473;-73
2022/10/23 11:42:10;;;;;;;4.60;3.83;;;;;;;26.48;43.18;99801.03;4334805;33;33513;-72
2022/10/23 11:44:49;;;;;;;4.87;2.45;;;;;;;26.48;41.58;99803.69;4334832;33;35738;-72
2022/10/23 11:47:38;;;;;;;4.18;3.30;;;;;;;24.63;45.28;99799.72;4348169;33;34371;-73
2022/10/23 11:50:07;;;;;;;3.70;2.72;;;;;;;24.89;45.98;99795.44;4347910;33;34367;-73
2022/10/23 11:52:38;;;;;;;16.23;4.07;;;;;;;24.08;47.02;99787.09;4347833;33;34018;-73
2022/10/23 11:55:23;;;;;;;2.08;1.87;;;;;;;23.70;49.47;99782.16;4334056;33;35000;-73
2022/10/23 11:58:12;;;;;;;7.07;4.05;;;;;;;23.02;48.87;99791.28;4334774;33;34483;-74
2022/10/23 12:00:51;;;;;;;3.03;1.87;;;;;;;23.11;49.29;99774.00;4323043;33;32197;-73
2022/10/23 12:03:25;;;;;;;4.22;2.50;;;;;;;23.40;49.79;99780.31;4347769;33;33992;-73
2022/10/23 12:06:05;;;;;;;1.83;1.73;;;;;;;23.37;49.05;99769.88;4334367;33;35922;-73